Time;durP1;ratioP1;P1;durP2;ratioP2;P2;SDS_P1;SDS_P2;PMS_P1;PMS_P2;Temp;Humidity;BMP_temperature;BMP_pressure;BME280_temperature;BME280_humidity;BME280_pressure;Samples;Min_cycle;Max_cycle;Signal;HPM_P1;HPM_P2
2022/11/07 00:01:58;;;;;;;42.30;21.23;;;2.20;99.90;;;;;;9998734;29;20278;-81
2022/11/07 00:07:01;;;;;;;44.40;20.60;;;2.20;99.90;;;;;;10012893;29;20332;-81
2022/11/07 00:12:05;;;;;;;41.97;20.77;;;2.20;99.90;;;;;;10014543;29;20658;-80
2022/11/07 00:17:08;;;;;;;39.53;19.93;;;2.30;99.90;;;;;;10013444;29;20329;-81
2022/11/07 00:22:10;;;;;;;35.20;19.87;;;2.30;99.90;;;;;;9993884;29;20234;-81
2022/11/07 00:27:12;;;;;;;41.33;20.43;;;2.00;99.90;;;;;;10012917;29;20643;-82
2022/11/07 00:32:15;;;;;;;39.87;21.03;;;1.90;99.90;;;;;;9995020;29;20695;-81
2022/11/07 00:37:17;;;;;;;43.57;22.63;;;2.10;99.90;;;;;;9994373;29;20695;-80
2022/11/07 00:42:20;;;;;;;39.67;21.67;;;2.40;99.90;;;;;;10014185;29;20287;-80
2022/11/07 00:47:22;;;;;;;37.73;21.20;;;2.10;99.90;;;;;;10013558;29;20300;-81
2022/11/07 00:52:25;;;;;;;39.40;21.47;;;2.10;99.90;;;;;;10013836;29;20691;-80
2022/11/07 00:57:27;;;;;;;39.77;20.30;;;2.00;99.90;;;;;;9997647;29;20296;-81
2022/11/07 01:02:30;;;;;;;46.43;21.67;;;1.90;99.90;;;;;;10017687;29;20282;-80
2022/11/07 01:07:33;;;;;;;38.23;22.50;;;1.80;99.90;;;;;;10003860;29;20275;-80
2022/11/07 01:12:35;;;;;;;47.70;23.50;;;1.80;99.90;;;;;;10019713;29;20632;-80
2022/11/07 01:17:38;;;;;;;44.27;25.10;;;1.90;99.90;;;;;;10019975;29;20274;-80
2022/11/07 01:22:41;;;;;;;43.70;23.97;;;1.90;99.90;;;;;;10003436;29;20245;-80
2022/11/07 01:27:43;;;;;;;40.37;23.93;;;1.90;99.90;;;;;;10002862;29;20249;-80
2022/11/07 01:32:46;;;;;;;52.07;26.40;;;1.90;99.90;;;;;;10003211;29;20257;-80
2022/11/07 01:37:48;;;;;;;49.87;25.13;;;2.10;99.90;;;;;;10018655;29;20272;-80
2022/11/07 01:42:50;;;;;;;51.10;28.00;;;2.10;99.90;;;;;;10019874;29;20245;-80
2022/11/07 01:47:57;;;;;;;58.93;29.23;;;2.40;99.90;;;;;;10019429;29;20249;-80
2022/11/07 01:53:00;;;;;;;54.07;31.00;;;2.50;99.90;;;;;;10001669;29;20707;-80
2022/11/07 01:58:07;;;;;;;51.47;29.00;;;2.70;99.90;;;;;;10018228;29;20684;-80
2022/11/07 02:03:13;;;;;;;52.90;30.63;;;2.80;99.90;;;;;;10018794;29;20300;-80
2022/11/07 02:08:17;;;;;;;57.10;32.17;;;3.00;99.90;;;;;;10001239;29;20670;-80
2022/11/07 02:13:25;;;;;;;58.97;30.73;;;2.90;99.90;;;;;;10017935;29;20248;-80
2022/11/07 02:18:29;;;;;;;66.90;33.37;;;3.00;99.90;;;;;;10018162;29;20295;-80
2022/11/07 02:23:44;;;;;;;63.23;32.17;;;2.90;99.90;;;;;;9999191;29;20238;-80
2022/11/07 02:28:48;;;;;;;57.93;30.93;;;2.90;99.90;;;;;;10001235;29;20293;-81
2022/11/07 02:33:50;;;;;;;69.87;31.83;;;2.80;99.90;;;;;;10001185;29;20249;-81
2022/11/07 02:38:57;;;;;;;57.43;32.73;;;2.90;99.90;;;;;;10017298;29;20264;-80
2022/11/07 02:44:05;;;;;;;58.10;32.17;;;2.90;99.90;;;;;;10001239;29;20671;-80
2022/11/07 02:49:08;;;;;;;60.07;32.70;;;2.90;99.90;;;;;;10017338;29;20299;-80
2022/11/07 02:54:10;;;;;;;62.33;33.27;;;2.80;99.90;;;;;;10016718;29;20699;-80
2022/11/07 02:59:13;;;;;;;62.60;32.87;;;2.90;99.90;;;;;;10000387;29;20268;-80
2022/11/07 03:04:15;;;;;;;57.47;31.23;;;2.90;99.90;;;;;;10016665;29;20245;-81
2022/11/07 03:09:18;;;;;;;58.77;31.23;;;2.90;99.90;;;;;;10000194;29;20261;-81
2022/11/07 03:14:20;;;;;;;56.53;32.40;;;2.80;99.90;;;;;;10016874;29;20744;-81
2022/11/07 03:19:23;;;;;;;68.90;32.07;;;2.90;99.90;;;;;;9999548;29;20269;-81
2022/11/07 03:24:26;;;;;;;60.93;32.10;;;2.90;99.90;;;;;;10015849;29;20301;-80
2022/11/07 03:29:28;;;;;;;64.10;31.47;;;3.00;99.90;;;;;;9999654;29;20245;-81
2022/11/07 03:34:31;;;;;;;67.03;33.17;;;3.00;99.90;;;;;;10016460;29;20253;-81
2022/11/07 03:39:33;;;;;;;60.53;32.00;;;3.00;99.90;;;;;;9997980;29;20807;-81
2022/11/07 03:44:36;;;;;;;70.93;31.13;;;2.90;99.90;;;;;;10016218;29;20245;-80
2022/11/07 03:49:38;;;;;;;58.27;31.30;;;3.00;99.90;;;;;;10014978;29;20250;-80
2022/11/07 03:54:41;;;;;;;64.30;32.50;;;3.00;99.90;;;;;;10013431;29;20253;-81
2022/11/07 03:59:43;;;;;;;64.40;33.17;;;2.90;99.90;;;;;;10015265;29;20817;-80
2022/11/07 04:04:46;;;;;;;61.23;32.53;;;2.90;99.90;;;;;;10012596;29;20286;-80
2022/11/07 04:09:48;;;;;;;58.97;30.90;;;2.90;99.90;;;;;;9998755;29;20330;-81
2022/11/07 04:20:12;;;;;;;54.73;31.07;;;2.90;99.90;;;;;;10014112;29;20646;-80
2022/11/07 04:25:15;;;;;;;58.37;29.97;;;2.90;99.90;;;;;;9998062;29;20245;-80
2022/11/07 04:30:17;;;;;;;58.67;31.43;;;2.90;99.90;;;;;;10014904;29;20244;-80
2022/11/07 04:35:23;;;;;;;60.70;30.67;;;2.80;99.90;;;;;;10016647;29;20237;-80
2022/11/07 04:40:27;;;;;;;58.87;30.37;;;2.70;99.90;;;;;;10021889;29;20801;-80
2022/11/07 04:45:29;;;;;;;63.27;32.07;;;2.70;99.90;;;;;;10021283;29;20247;-80
2022/11/07 04:50:32;;;;;;;57.70;29.70;;;2.70;99.90;;;;;;10021029;29;20249;-81
2022/11/07 04:55:34;;;;;;;59.80;28.50;;;2.80;99.90;;;;;;10004863;29;20264;-81
2022/11/07 05:00:37;;;;;;;60.17;29.37;;;2.80;99.90;;;;;;10005016;29;20313;-80
2022/11/07 05:05:39;;;;;;;64.17;29.60;;;2.90;99.90;;;;;;10001192;29;20653;-81
2022/11/07 05:10:42;;;;;;;68.83;31.17;;;3.00;99.90;;;;;;10003449;29;20719;-81
2022/11/07 05:15:45;;;;;;;68.93;30.63;;;3.10;99.90;;;;;;10004756;29;20298;-80
2022/11/07 05:20:47;;;;;;;74.70;33.43;;;3.30;99.90;;;;;;10018769;29;20811;-80
2022/11/07 05:25:51;;;;;;;81.97;39.43;;;3.40;99.90;;;;;;10020379;29;20245;-81
2022/11/07 05:31:00;;;;;;;69.33;34.50;;;3.40;99.90;;;;;;9998746;29;20261;-80
2022/11/07 05:36:17;;;;;;;63.53;32.43;;;3.50;99.90;;;;;;10001836;29;20242;-81
2022/11/07 05:41:21;;;;;;;58.73;31.77;;;3.60;99.90;;;;;;9999200;29;20269;-81
2022/11/07 05:46:23;;;;;;;64.67;34.93;;;3.60;99.90;;;;;;10016786;29;20238;-80
2022/11/07 05:51:26;;;;;;;38.23;21.63;;;3.70;99.90;;;;;;10016402;29;20282;-81
2022/11/07 05:56:37;;;;;;;69.93;32.40;;;4.50;99.90;;;;;;9992318;24;20289;31
2022/11/07 06:01:41;;;;;;;65.43;33.27;;;4.20;99.90;;;;;;9961642;29;20247;-94
2022/11/07 06:06:47;;;;;;;66.77;34.57;;;3.80;99.90;;;;;;9949783;29;20223;-94
2022/11/07 06:11:50;;;;;;;62.03;31.17;;;4.20;99.90;;;;;;9963251;29;20223;-95
2022/11/07 06:16:53;;;;;;;55.03;31.30;;;3.90;99.90;;;;;;9953321;29;20246;-93
2022/11/07 06:21:55;;;;;;;59.10;30.43;;;4.00;99.90;;;;;;9957909;29;20235;-94
2022/11/07 06:27:19;;;;;;;77.50;39.43;;;4.00;99.90;;;;;;9962886;29;20215;-93
2022/11/07 06:32:24;;;;;;;74.00;38.47;;;4.10;99.90;;;;;;9952653;29;20269;-95
2022/11/07 06:37:27;;;;;;;68.83;37.13;;;5.00;99.90;;;;;;9953194;29;20207;-96
2022/11/07 06:42:31;;;;;;;62.47;31.70;;;4.30;99.90;;;;;;9967888;29;20248;-95
2022/11/07 06:47:36;;;;;;;60.93;31.73;;;4.20;99.90;;;;;;9966872;29;20219;-94
2022/11/07 06:52:40;;;;;;;69.83;35.50;;;4.20;99.90;;;;;;9964021;29;20215;-94
2022/11/07 06:57:47;;;;;;;65.57;34.93;;;4.30;99.90;;;;;;9965434;29;20228;-95
2022/11/07 07:02:51;;;;;;;77.67;35.07;;;4.60;99.90;;;;;;9980898;29;20240;-94
2022/11/07 07:08:01;;;;;;;58.73;31.03;;;4.50;99.90;;;;;;9962907;29;20219;-95
2022/11/07 07:13:09;;;;;;;59.80;32.40;;;4.70;99.90;;;;;;9964623;29;20211;-94
2022/11/07 07:18:13;;;;;;;61.77;33.43;;;4.80;99.90;;;;;;9947980;29;20285;-95
2022/11/07 07:23:19;;;;;;;59.77;31.90;;;4.50;99.90;;;;;;9917757;29;20212;-91
2022/11/07 07:28:22;;;;;;;53.90;29.67;;;4.90;99.90;;;;;;9920271;29;20247;-91
2022/11/07 07:33:25;;;;;;;56.70;29.90;;;4.50;99.90;;;;;;9895206;29;20252;-92
2022/11/07 07:38:27;;;;;;;64.23;34.00;;;4.30;99.90;;;;;;9901378;30;20267;-92
2022/11/07 07:43:30;;;;;;;57.77;30.57;;;4.50;99.90;;;;;;9923604;29;20308;-94
2022/11/07 07:48:33;;;;;;;59.73;28.90;;;6.00;99.90;;;;;;9933096;30;20376;-95
2022/11/07 07:53:36;;;;;;;50.83;25.53;;;5.20;99.90;;;;;;9938946;29;20277;-96
2022/11/07 07:58:43;;;;;;;49.33;29.13;;;5.40;99.90;;;;;;9948602;29;20283;-96
2022/11/07 08:03:48;;;;;;;44.53;26.17;;;5.70;99.90;;;;;;9925311;30;20212;-95
2022/11/07 08:09:04;;;;;;;44.07;21.77;;;6.10;99.90;;;;;;9923451;30;20263;-95
2022/11/07 08:14:07;;;;;;;38.83;21.87;;;6.40;99.90;;;;;;9925561;30;20238;-94
2022/11/07 08:19:10;;;;;;;34.23;18.80;;;7.00;99.90;;;;;;9902661;29;20236;-93
2022/11/07 08:24:12;;;;;;;157.03;30.93;;;9.20;99.90;;;;;;9928849;29;20320;-93
2022/11/07 08:29:15;;;;;;;27.43;17.13;;;9.80;99.90;;;;;;9905615;29;20255;-93
2022/11/07 08:34:17;;;;;;;27.33;15.17;;;8.30;99.90;;;;;;9899150;29;20247;-93
2022/11/07 08:39:20;;;;;;;47.83;18.03;;;8.40;99.90;;;;;;9902233;29;20271;-91
2022/11/07 08:44:23;;;;;;;68.33;17.00;;;8.60;99.90;;;;;;9911240;29;20252;-91
2022/11/07 08:49:26;;;;;;;44.10;17.27;;;9.90;99.90;;;;;;9902081;29;20260;-92
2022/11/07 08:54:28;;;;;;;57.37;19.73;;;9.60;99.90;;;;;;9918862;29;20252;-92
2022/11/07 08:59:31;;;;;;;95.73;22.83;;;13.10;99.90;;;;;;9887096;30;20270;-92
2022/11/07 09:04:34;;;;;;;68.30;22.57;;;;;;;;;;9903043;29;20270;-92
2022/11/07 09:09:36;;;;;;;58.13;18.50;;;14.00;99.90;;;;;;9938334;29;20301;-92
2022/11/07 09:14:39;;;;;;;28.87;12.90;;;13.90;99.90;;;;;;9931854;29;20257;-92
2022/11/07 09:19:41;;;;;;;49.27;19.50;;;13.80;99.90;;;;;;9922550;29;20274;-91
2022/11/07 09:24:44;;;;;;;16.40;8.70;;;16.20;99.90;;;;;;9912479;29;20248;-93
2022/11/07 09:29:47;;;;;;;38.60;14.37;;;15.20;99.20;;;;;;9927410;29;20247;-92
2022/11/07 09:34:49;;;;;;;46.50;15.60;;;14.60;99.90;;;;;;9928708;29;20256;-92
2022/11/07 09:40:02;;;;;;;31.63;15.13;;;14.50;99.90;;;;;;9944250;29;20283;-92
2022/11/07 09:45:11;;;;;;;16.03;11.00;;;15.30;99.90;;;;;;9929090;29;20250;-92
2022/11/07 09:50:37;;;;;;;36.60;15.87;;;15.10;99.90;;;;;;9928077;29;20703;-92
2022/11/07 09:55:51;;;;;;;30.20;13.13;;;16.20;99.90;;;;;;9942920;29;20678;-92
2022/11/07 10:00:58;;;;;;;26.73;12.40;;;15.60;99.90;;;;;;9892450;30;20276;-92
2022/11/07 10:06:23;;;;;;;27.80;14.53;;;15.50;99.40;;;;;;9908253;29;20240;-91
2022/11/07 10:11:40;;;;;;;35.67;15.43;;;15.80;99.90;;;;;;9909824;29;20340;-92
2022/11/07 10:17:20;;;;;;;28.00;14.70;;;16.30;98.70;;;;;;9893312;30;20251;-92
2022/11/07 10:22:40;;;;;;;29.77;12.97;;;15.80;99.40;;;;;;9921376;29;20276;-92
2022/11/07 10:27:46;;;;;;;13.40;8.53;;;15.80;99.90;;;;;;9906540;30;20321;-92
2022/11/07 10:33:06;;;;;;;13.87;9.57;;;14.00;99.90;;;;;;9940507;29;20248;-92
2022/11/07 10:38:20;;;;;;;22.30;11.23;;;12.30;99.90;;;;;;9941820;29;20291;-92
2022/11/07 10:43:36;;;;;;;18.53;11.00;;;13.80;99.90;;;;;;9927283;29;20242;-92
2022/11/07 10:48:59;;;;;;;27.60;12.17;;;13.20;99.90;;;;;;9893803;29;20249;-92
2022/11/07 10:54:01;;;;;;;23.07;12.43;;;14.60;99.90;;;;;;9926135;29;20223;-92
2022/11/07 10:59:12;;;;;;;14.20;8.63;;;13.70;99.90;;;;;;9925931;29;20275;-92
2022/11/07 11:04:26;;;;;;;13.23;9.13;;;13.20;99.90;;;;;;9941872;29;20281;-92
2022/11/07 11:09:34;;;;;;;15.63;8.47;;;12.60;99.90;;;;;;9925746;29;20260;-92
2022/11/07 11:14:37;;;;;;;23.20;11.43;;;12.50;99.90;;;;;;9926342;29;20242;-91
2022/11/07 11:19:50;;;;;;;30.57;10.30;;;14.10;99.90;;;;;;9924202;29;20327;-92
2022/11/07 11:25:18;;;;;;;20.97;12.07;;;13.80;99.90;;;;;;9939317;29;20286;-92
2022/11/07 11:30:21;;;;;;;14.33;9.47;;;15.10;99.90;;;;;;9916757;29;20251;-91
2022/11/07 11:35:29;;;;;;;14.43;9.50;;;11.90;99.90;;;;;;9934393;29;20337;-91
2022/11/07 11:40:38;;;;;;;12.90;8.20;;;11.50;99.90;;;;;;9910497;29;20306;-92
2022/11/07 11:45:52;;;;;;;16.07;10.00;;;11.70;99.90;;;;;;9918185;29;20773;-91
2022/11/07 11:51:19;;;;;;;22.30;11.27;;;11.60;99.90;;;;;;9890548;29;20258;-92
2022/11/07 11:56:24;;;;;;;20.50;9.93;;;14.10;99.90;;;;;;9939639;29;20239;-93
2022/11/07 12:02:02;;;;;;;11.60;7.63;;;13.10;99.90;;;;;;9897726;30;20276;-92
2022/11/07 12:07:16;;;;;;;14.73;9.67;;;12.00;99.90;;;;;;9887060;30;20251;-92
2022/11/07 12:12:52;;;;;;;9.17;6.47;;;12.90;99.90;;;;;;9904882;29;20273;-93
2022/11/07 12:18:17;;;;;;;10.93;7.27;;;13.80;99.90;;;;;;9901161;29;20254;-92
2022/11/07 12:23:37;;;;;;;9.93;6.83;;;13.40;99.90;;;;;;9939271;29;20270;-92
2022/11/07 12:28:49;;;;;;;12.13;6.67;;;13.40;99.90;;;;;;9939105;29;20294;-93
2022/11/07 12:34:13;;;;;;;13.03;6.87;;;14.40;99.90;;;;;;9936297;29;20239;-93
2022/11/07 12:39:31;;;;;;;12.13;6.80;;;13.40;99.90;;;;;;9921413;29;20783;-93
2022/11/07 12:45:24;;;;;;;10.80;7.17;;;13.10;99.90;;;;;;9920208;29;20701;-93
2022/11/07 12:50:42;;;;;;;13.43;7.80;;;14.50;99.90;;;;;;9880775;29;20326;-92
2022/11/07 12:55:56;;;;;;;12.20;8.03;;;15.20;99.90;;;;;;9921890;29;20322;-92
2022/11/07 13:01:00;;;;;;;8.33;5.63;;;16.10;99.90;;;;;;9929164;29;20294;-91
2022/11/07 13:06:03;;;;;;;9.20;5.83;;;14.80;99.90;;;;;;9928732;29;20243;-92
2022/11/07 13:11:32;;;;;;;14.27;8.53;;;13.00;99.90;;;;;;9914492;29;20290;-92
2022/11/07 13:16:36;;;;;;;16.43;8.93;;;12.70;99.90;;;;;;9913630;29;20278;-92
2022/11/07 13:21:42;;;;;;;17.50;9.47;;;12.10;99.90;;;;;;9928075;29;20265;-93
2022/11/07 13:26:45;;;;;;;12.80;7.63;;;11.00;99.90;;;;;;9904485;30;20314;-92
2022/11/07 13:32:04;;;;;;;13.93;7.63;;;11.10;99.90;;;;;;9907314;29;20308;-93
2022/11/07 13:37:15;;;;;;;21.00;10.53;;;10.80;99.90;;;;;;9903583;29;20255;-92
2022/11/07 13:42:19;;;;;;;16.83;10.43;;;10.60;99.90;;;;;;9907629;29;20392;-93
2022/11/07 13:47:29;;;;;;;19.43;9.90;;;10.50;99.90;;;;;;9915108;29;20297;-93
2022/11/07 13:52:40;;;;;;;21.23;10.43;;;10.60;99.90;;;;;;9925903;29;20726;-93
2022/11/07 13:57:51;;;;;;;17.60;9.07;;;10.60;99.90;;;;;;9906520;30;20297;-92
2022/11/07 14:02:56;;;;;;;16.67;7.70;;;10.60;99.90;;;;;;9926109;29;20271;-93
2022/11/07 14:08:05;;;;;;;14.23;7.50;;;10.50;99.90;;;;;;9942429;29;20243;-92
2022/11/07 14:13:21;;;;;;;17.53;8.70;;;10.60;99.90;;;;;;9938570;29;20278;-92
2022/11/07 14:18:27;;;;;;;17.47;8.83;;;10.60;99.90;;;;;;9922635;29;20320;-92
2022/11/07 14:23:31;;;;;;;16.73;10.30;;;10.70;99.90;;;;;;9942645;29;20267;-92
2022/11/07 14:28:36;;;;;;;18.00;10.37;;;10.30;99.90;;;;;;9933152;29;20274;-91
2022/11/07 14:33:48;;;;;;;16.53;11.00;;;10.00;99.90;;;;;;9889453;29;20259;-92
2022/11/07 14:38:53;;;;;;;20.83;10.37;;;9.90;99.90;;;;;;9929905;29;20254;-91
2022/11/07 14:44:01;;;;;;;20.40;12.83;;;9.90;99.90;;;;;;9921790;29;20297;-90
2022/11/07 14:49:05;;;;;;;26.30;13.23;;;9.80;99.90;;;;;;9920526;29;20222;-92
2022/11/07 14:54:16;;;;;;;24.07;13.50;;;9.80;99.90;;;;;;9889145;29;20281;-91
2022/11/07 14:59:23;;;;;;;23.20;13.87;;;9.60;99.90;;;;;;9901174;29;20285;-92
2022/11/07 15:04:38;;;;;;;27.47;15.37;;;9.60;99.90;;;;;;9879024;29;20231;-92
2022/11/07 15:09:40;;;;;;;27.30;14.37;;;9.50;99.90;;;;;;9946180;29;20780;-90
2022/11/07 15:14:43;;;;;;;25.53;16.07;;;9.30;99.90;;;;;;9930628;29;20324;-91
2022/11/07 15:20:00;;;;;;;26.67;13.27;;;9.40;99.90;;;;;;9922651;29;20324;-91
2022/11/07 15:25:27;;;;;;;36.37;19.37;;;9.30;99.90;;;;;;9938686;29;20725;-91
2022/11/07 15:30:32;;;;;;;29.60;15.57;;;9.10;99.90;;;;;;9923798;29;20223;-92
2022/11/07 15:35:37;;;;;;;22.17;13.13;;;9.00;99.90;;;;;;9910718;29;20253;-92
2022/11/07 15:40:46;;;;;;;19.33;11.70;;;8.80;99.90;;;;;;9939463;29;20317;-92
2022/11/07 15:45:51;;;;;;;21.17;12.33;;;8.70;99.90;;;;;;9908857;29;20698;-93
2022/11/07 15:50:54;;;;;;;27.33;17.50;;;8.70;99.90;;;;;;9933036;29;20252;-91
2022/11/07 15:55:59;;;;;;;28.77;17.60;;;8.60;99.90;;;;;;9914351;29;20259;-92
2022/11/07 16:01:01;;;;;;;23.00;14.30;;;8.50;99.90;;;;;;9903671;29;20336;-93
2022/11/07 16:06:29;;;;;;;18.40;12.60;;;;;;;;;;9906888;29;20219;-92
2022/11/07 16:11:31;;;;;;;21.03;14.03;;;8.50;99.90;;;;;;9913781;29;20254;-91
2022/11/07 16:16:34;;;;;;;21.00;14.73;;;8.50;99.90;;;;;;9896258;29;20300;-90
2022/11/07 16:21:36;;;;;;;23.43;14.73;;;8.40;99.90;;;;;;9924387;29;20272;-91
2022/11/07 16:26:39;;;;;;;25.47;16.47;;;8.60;99.90;;;;;;9922358;29;20262;-92
2022/11/07 16:31:42;;;;;;;21.97;14.27;;;8.70;99.90;;;;;;9932776;29;20223;-96
2022/11/07 16:36:46;;;;;;;21.40;12.30;;;8.80;99.90;;;;;;9977619;24;20233;-82
2022/11/07 16:41:49;;;;;;;27.03;14.07;;;8.40;99.90;;;;;;10041808;29;20286;-82
2022/11/07 16:46:54;;;;;;;24.50;13.03;;;8.10;99.90;;;;;;10043893;29;20241;-82
2022/11/07 16:51:57;;;;;;;27.47;15.17;;;8.00;99.90;;;;;;10041810;29;20246;-82
2022/11/07 16:57:00;;;;;;;31.47;17.53;;;7.90;99.90;;;;;;10030638;29;20680;-82
2022/11/07 17:02:08;;;;;;;34.97;16.67;;;7.90;99.90;;;;;;10046231;29;20317;-82
2022/11/07 17:07:17;;;;;;;26.37;14.10;;;7.80;99.90;;;;;;10042995;29;20258;-84
2022/11/07 17:12:21;;;;;;;30.50;15.73;;;7.70;99.90;;;;;;10024860;29;20283;-83
2022/11/07 17:17:23;;;;;;;30.33;15.73;;;7.60;99.90;;;;;;10043580;29;20626;-83
2022/11/07 17:22:26;;;;;;;28.53;17.77;;;7.50;99.90;;;;;;10045986;29;20261;-83
2022/11/07 17:27:29;;;;;;;39.13;21.20;;;7.40;99.90;;;;;;10064054;29;20333;-83
2022/11/07 17:32:31;;;;;;;39.80;22.63;;;7.30;99.90;;;;;;10026917;29;21109;-83
2022/11/07 17:37:34;;;;;;;42.60;23.33;;;7.50;99.90;;;;;;10009309;29;20258;-83
2022/11/07 17:42:38;;;;;;;45.53;25.10;;;7.70;99.90;;;;;;10033139;29;20261;-83
2022/11/07 17:47:40;;;;;;;49.17;26.90;;;7.60;99.90;;;;;;10038920;29;20677;-85
2022/11/07 17:52:42;;;;;;;51.33;26.30;;;7.60;99.90;;;;;;10031850;29;20842;-84
2022/11/07 17:57:45;;;;;;;32.13;21.67;;;7.90;99.90;;;;;;10000481;29;20245;-84
2022/11/07 18:02:49;;;;;;;31.57;17.97;;;8.10;99.90;;;;;;10017274;29;20261;-84
2022/11/07 18:07:52;;;;;;;41.03;18.53;;;8.20;99.90;;;;;;10000410;29;20298;-84
2022/11/07 18:12:56;;;;;;;31.97;18.97;;;8.30;99.90;;;;;;9999756;29;20245;-84
2022/11/07 18:17:59;;;;;;;41.63;24.63;;;8.30;99.90;;;;;;10031355;29;20245;-85
2022/11/07 18:23:01;;;;;;;42.67;24.77;;;8.70;99.90;;;;;;10033257;29;20265;-85
2022/11/07 18:28:05;;;;;;;48.63;27.00;;;8.50;99.90;;;;;;10035189;29;20278;-87
2022/11/07 18:33:07;;;;;;;48.57;27.87;;;8.50;99.90;;;;;;10057398;29;20719;-85
2022/11/07 18:38:10;;;;;;;43.40;24.43;;;8.50;99.90;;;;;;10063162;29;20584;-84
2022/11/07 18:43:12;;;;;;;42.70;23.53;;;8.60;99.90;;;;;;10026578;29;20237;-85
2022/11/07 18:48:16;;;;;;;37.27;23.50;;;8.60;99.90;;;;;;10060540;29;20213;-84
2022/11/07 18:53:19;;;;;;;36.73;20.80;;;8.60;99.90;;;;;;10053706;29;20683;-84
2022/11/07 18:58:21;;;;;;;35.67;20.90;;;8.90;99.90;;;;;;10061585;29;20259;-84
2022/11/07 19:03:24;;;;;;;37.73;19.67;;;8.80;99.90;;;;;;10054173;29;20682;-85
2022/11/07 19:08:28;;;;;;;35.17;18.90;;;8.90;99.90;;;;;;10018095;29;20274;-84
2022/11/07 19:13:33;;;;;;;40.70;21.73;;;9.30;99.90;;;;;;10053669;29;20245;-84
2022/11/07 19:18:36;;;;;;;38.83;19.83;;;9.20;99.90;;;;;;10030831;29;20241;-85
2022/11/07 19:23:39;;;;;;;38.97;21.73;;;9.20;99.90;;;;;;10045658;29;20273;-84
2022/11/07 19:28:41;;;;;;;52.37;24.67;;;9.30;99.90;;;;;;10032653;29;20289;-85
2022/11/07 19:33:44;;;;;;;34.47;19.90;;;9.40;99.90;;;;;;10011198;29;20286;-84
2022/11/07 19:38:47;;;;;;;31.57;20.73;;;9.40;99.90;;;;;;10052441;29;20302;-84
2022/11/07 19:43:50;;;;;;;35.00;20.07;;;9.30;99.90;;;;;;10043808;29;20310;-86
2022/11/07 19:48:54;;;;;;;43.50;22.67;;;9.40;99.90;;;;;;10035196;29;20676;-87
2022/11/07 19:53:59;;;;;;;37.80;20.60;;;9.30;99.90;;;;;;10019521;29;20245;-85
2022/11/07 19:59:01;;;;;;;38.90;21.63;;;9.30;99.90;;;;;;10024191;29;20673;-84
2022/11/07 20:04:04;;;;;;;35.50;20.10;;;9.20;99.90;;;;;;10034552;29;20660;-84
2022/11/07 20:09:10;;;;;;;35.13;21.00;;;9.30;99.90;;;;;;10015915;29;20241;-85
2022/11/07 20:14:13;;;;;;;34.03;19.80;;;9.30;99.90;;;;;;10035553;29;20754;-85
2022/11/07 20:19:15;;;;;;;41.07;20.30;;;9.40;99.90;;;;;;10007007;29;20234;-86
2022/11/07 20:24:18;;;;;;;33.73;19.17;;;9.30;99.90;;;;;;10023653;29;20261;-85
2022/11/07 20:29:21;;;;;;;34.23;20.53;;;9.40;99.90;;;;;;10035908;29;20237;-85
2022/11/07 20:34:24;;;;;;;37.27;21.47;;;9.50;99.90;;;;;;10028185;29;20279;-85
2022/11/07 20:39:26;;;;;;;38.23;20.60;;;9.50;99.90;;;;;;10009884;29;21074;-85
2022/11/07 20:44:29;;;;;;;38.70;20.03;;;9.60;99.90;;;;;;10034988;29;20281;-86
2022/11/07 20:49:31;;;;;;;28.57;16.67;;;9.60;99.90;;;;;;10024737;29;20392;-84
2022/11/07 20:54:35;;;;;;;41.97;19.63;;;9.80;99.90;;;;;;10015939;29;20253;-85
2022/11/07 20:59:40;;;;;;;36.97;18.90;;;9.60;99.90;;;;;;10032142;29;20271;-85
2022/11/07 21:04:42;;;;;;;29.93;17.43;;;9.70;99.90;;;;;;10031359;29;20739;-85
2022/11/07 21:10:05;;;;;;;31.87;17.53;;;9.50;99.90;;;;;;10034233;29;20271;-85
2022/11/07 21:15:09;;;;;;;36.00;18.57;;;9.50;99.90;;;;;;10033403;29;20274;-85
2022/11/07 21:20:11;;;;;;;28.87;16.80;;;9.50;99.90;;;;;;10038541;29;20246;-85
2022/11/07 21:25:15;;;;;;;30.30;16.67;;;9.90;99.90;;;;;;10046897;29;20272;-85
2022/11/07 21:30:18;;;;;;;24.37;15.20;;;10.00;99.90;;;;;;10040560;29;20278;-85
2022/11/07 21:35:22;;;;;;;29.13;16.40;;;10.10;99.90;;;;;;10056717;29;20249;-85
2022/11/07 21:40:25;;;;;;;28.93;15.50;;;9.80;99.90;;;;;;10040928;29;20684;-85
2022/11/07 21:45:27;;;;;;;26.43;16.17;;;10.30;99.90;;;;;;10057530;29;20616;-85
2022/11/07 21:50:30;;;;;;;24.60;13.60;;;10.00;99.90;;;;;;10039648;29;20246;-85
2022/11/07 21:55:46;;;;;;;28.67;15.93;;;10.80;99.90;;;;;;10056654;29;20305;-84
2022/11/07 22:00:48;;;;;;;23.40;14.67;;;10.20;99.90;;;;;;10043360;29;20302;-89
2022/11/07 22:05:51;;;;;;;25.80;13.70;;;10.20;99.90;;;;;;10020223;29;20312;-90
2022/11/07 22:10:54;;;;;;;21.77;13.37;;;10.60;99.90;;;;;;10034713;29;20273;-89
2022/11/07 22:16:18;;;;;;;21.20;12.00;;;10.80;99.90;;;;;;10036811;29;20295;-89
2022/11/07 22:21:22;;;;;;;20.90;11.77;;;10.70;99.90;;;;;;10023384;29;20704;-88
2022/11/07 22:26:26;;;;;;;16.93;11.33;;;10.40;99.90;;;;;;10020026;29;20285;-89
2022/11/07 22:31:30;;;;;;;19.70;10.93;;;10.50;99.90;;;;;;10004863;29;20210;-84
2022/11/07 22:36:33;;;;;;;21.07;11.90;;;10.60;99.90;;;;;;10036808;29;20756;-84
2022/11/07 22:41:35;;;;;;;15.37;10.53;;;10.90;99.90;;;;;;10031989;29;20322;-84
2022/11/07 22:46:38;;;;;;;18.40;11.80;;;11.50;99.90;;;;;;10018472;29;20258;-85
2022/11/07 22:51:41;;;;;;;18.13;10.60;;;10.60;99.90;;;;;;10042955;29;20250;-87
2022/11/07 22:56:43;;;;;;;17.57;10.23;;;11.10;99.90;;;;;;10030464;29;20258;-87
2022/11/07 23:01:45;;;;;;;17.97;9.97;;;10.80;99.90;;;;;;10054461;29;20373;-87
2022/11/07 23:06:48;;;;;;;14.07;9.90;;;10.70;99.90;;;;;;10053022;29;20241;-87
2022/11/07 23:11:50;;;;;;;18.33;11.53;;;11.10;99.90;;;;;;10053607;29;20258;-87
2022/11/07 23:16:54;;;;;;;19.00;9.13;;;11.80;99.90;;;;;;10047528;29;20272;-86
2022/11/07 23:21:56;;;;;;;15.23;9.00;;;11.90;99.90;;;;;;10021524;29;20260;-85
2022/11/07 23:26:59;;;;;;;13.20;9.57;;;;;;;;;;10014482;29;20249;-87
2022/11/07 23:32:01;;;;;;;12.40;8.13;;;13.00;99.90;;;;;;10029256;29;20653;-87
2022/11/07 23:37:12;;;;;;;14.70;10.03;;;12.20;99.90;;;;;;10051605;29;20259;-87
2022/11/07 23:42:15;;;;;;;12.33;8.50;;;13.70;99.90;;;;;;10053033;29;20716;-85
2022/11/07 23:52:39;;;;;;;12.80;7.30;;;12.40;99.90;;;;;;10034541;29;20316;-86
